Time;durP1;ratioP1;P1;durP2;ratioP2;P2;SDS_P1;SDS_P2;PMS_P1;PMS_P2;Temp;Humidity;BMP_temperature;BMP_pressure;BME280_temperature;BME280_humidity;BME280_pressure;Samples;Min_cycle;Max_cycle;Signal;HPM_P1;HPM_P2
2023/07/19 00:01:33;;;;;;;4.90;2.53;;;21.40;75.60;;;24.21;49.83;101344.00;5040740;28;20308;-60
2023/07/19 00:04:00;;;;;;;3.17;2.17;;;21.40;75.70;;;24.19;49.56;101344.25;5053543;28;20272;-61
2023/07/19 00:06:27;;;;;;;2.43;1.87;;;21.40;75.60;;;24.16;49.41;101342.06;5053443;28;20196;-61
2023/07/19 00:08:55;;;;;;;2.63;2.30;;;21.40;75.60;;;24.14;49.96;101333.41;5053048;28;20601;-61
2023/07/19 00:11:22;;;;;;;3.93;2.40;;;21.30;75.70;;;24.12;49.74;101332.84;5044284;28;20197;-61
2023/07/19 00:13:50;;;;;;;3.97;2.57;;;21.30;75.70;;;24.10;50.05;101326.88;5033358;28;20289;-59
2023/07/19 00:16:17;;;;;;;2.83;2.40;;;21.30;76.10;;;24.09;50.19;101325.28;5033687;28;20213;-62
2023/07/19 00:18:44;;;;;;;3.17;2.50;;;21.30;76.30;;;24.08;50.21;101318.25;5032839;28;20221;-62
2023/07/19 00:21:11;;;;;;;2.93;2.13;;;21.30;76.30;;;24.09;50.49;101319.06;5033549;28;20187;-61
2023/07/19 00:23:38;;;;;;;2.67;2.47;;;21.20;76.40;;;24.08;49.96;101312.88;5033527;28;20195;-63
2023/07/19 00:26:05;;;;;;;6.07;3.47;;;21.20;76.60;;;24.07;50.31;101316.66;5045909;28;20208;-61
2023/07/19 00:28:32;;;;;;;10.17;8.23;;;21.30;77.00;;;24.08;50.85;101317.47;5052902;28;20218;-61
2023/07/19 00:31:03;;;;;;;9.67;7.53;;;21.30;77.10;;;24.07;50.12;101316.66;5053206;28;20209;-61
2023/07/19 00:33:30;;;;;;;8.30;6.90;;;21.20;77.00;;;24.07;50.73;101316.66;5052071;28;20557;-63
2023/07/19 00:35:57;;;;;;;5.33;3.97;;;21.20;76.80;;;24.06;50.47;101309.63;5051991;28;20292;-63
2023/07/19 00:38:24;;;;;;;17.10;14.63;;;21.20;76.80;;;24.07;50.13;101305.06;5053203;28;20244;-63
2023/07/19 00:40:51;;;;;;;9.67;8.67;;;21.30;76.80;;;24.10;50.26;101309.97;5036927;28;20581;-62
2023/07/19 00:43:19;;;;;;;5.93;4.90;;;21.30;76.70;;;24.11;50.10;101311.56;5033100;28;20190;-62
2023/07/19 00:45:52;;;;;;;12.93;10.20;;;21.30;76.60;;;24.11;50.46;101304.31;5032937;28;20655;-62
2023/07/19 00:48:22;;;;;;;12.03;10.23;;;21.30;76.60;;;24.13;50.02;101306.75;5033032;28;20223;-60
2023/07/19 00:50:52;;;;;;;8.93;6.33;;;21.30;76.50;;;24.12;49.94;101295.19;5032915;28;20601;-62
2023/07/19 00:53:23;;;;;;;5.00;4.50;;;21.30;76.40;;;24.11;50.17;101284.66;5037179;28;20218;-62
2023/07/19 00:55:50;;;;;;;4.43;3.47;;;21.30;76.50;;;24.10;50.06;101283.84;5056476;28;20257;-61
2023/07/19 00:58:21;;;;;;;4.33;2.90;;;21.30;76.70;;;24.10;50.43;101289.22;5056379;28;20225;-61
2023/07/19 01:00:48;;;;;;;5.37;2.20;;;21.30;76.80;;;24.11;50.09;101280.09;5055946;28;20297;-65
2023/07/19 01:03:16;;;;;;;4.23;2.60;;;21.30;76.80;;;24.12;50.37;101276.34;5056692;28;20685;-60
2023/07/19 01:05:44;;;;;;;4.87;3.17;;;21.30;76.70;;;24.11;50.14;101269.34;5056414;28;20736;-61
2023/07/19 01:08:11;;;;;;;3.70;2.37;;;21.30;76.20;;;24.04;50.24;101252.53;5055849;28;20650;-61
2023/07/19 01:10:39;;;;;;;4.80;2.73;;;21.30;76.20;;;23.99;49.85;101255.16;5041105;28;20321;-61
2023/07/19 01:13:08;;;;;;;4.63;2.50;;;21.30;76.10;;;23.97;50.40;101257.28;5036674;28;20218;-61
2023/07/19 01:15:36;;;;;;;3.57;2.70;;;21.30;76.20;;;23.94;50.28;101255.09;5036424;28;20204;-62
2023/07/19 01:18:04;;;;;;;3.13;2.60;;;21.20;76.10;;;23.92;50.43;101251.84;5036232;28;20714;-61
2023/07/19 01:20:31;;;;;;;3.03;2.63;;;21.20;76.30;;;23.94;50.27;101257.78;5035533;28;20218;-62
2023/07/19 01:23:00;;;;;;;3.80;2.50;;;21.20;76.70;;;23.95;50.61;101254.03;5046047;28;20720;-61
2023/07/19 01:25:27;;;;;;;4.00;2.40;;;21.20;76.80;;;23.97;50.43;101251.91;5055853;28;20201;-61
2023/07/19 01:27:54;;;;;;;4.27;2.93;;;21.20;76.70;;;23.95;50.13;101237.91;5055008;28;20198;-61
2023/07/19 01:30:21;;;;;;;2.53;2.33;;;21.20;76.50;;;23.98;50.07;101241.97;5053906;28;20578;-62
2023/07/19 01:32:48;;;;;;;3.00;2.50;;;21.20;76.40;;;23.96;50.09;101236.81;5056246;28;20214;-60
2023/07/19 01:35:16;;;;;;;3.53;2.70;;;21.20;76.20;;;23.95;50.04;101237.91;5054684;28;20585;-60
2023/07/19 01:37:43;;;;;;;6.33;2.67;;;21.20;76.40;;;23.93;49.93;101234.66;5041904;28;20540;-62
2023/07/19 01:40:12;;;;;;;4.00;2.50;;;21.20;76.30;;;23.91;49.80;101231.41;5035168;28;20246;-61
2023/07/19 01:42:40;;;;;;;3.30;2.87;;;21.20;76.00;;;23.84;49.59;101235.34;5036069;28;20202;-61
2023/07/19 01:45:08;;;;;;;2.63;2.20;;;21.20;75.50;;;23.75;50.25;101240.31;5035954;28;20713;-62
2023/07/19 01:47:35;;;;;;;4.10;2.50;;;21.10;75.50;;;23.74;50.22;101236.03;5034688;28;20198;-62
2023/07/19 01:50:03;;;;;;;2.43;2.23;;;21.10;75.70;;;23.72;49.93;101232.78;5035168;28;20203;-61
2023/07/19 01:52:30;;;;;;;5.70;2.27;;;21.00;75.60;;;23.72;49.79;101227.41;5053663;28;20281;-60
2023/07/19 01:54:57;;;;;;;3.07;1.80;;;21.00;75.60;;;23.71;49.80;101236.53;5055791;28;20300;-62
2023/07/19 01:57:26;;;;;;;3.10;2.20;;;21.00;75.70;;;23.73;49.90;101222.81;5054742;28;20367;-63
2023/07/19 01:59:53;;;;;;;2.93;2.20;;;21.00;76.00;;;23.74;50.31;101225.28;5054803;28;20217;-62
2023/07/19 02:02:20;;;;;;;3.10;2.27;;;21.00;76.30;;;23.78;50.35;101226.38;5055350;28;20245;-61
2023/07/19 02:04:48;;;;;;;4.60;2.10;;;21.00;76.50;;;23.83;50.49;101223.78;5055325;28;20190;-62
2023/07/19 02:07:15;;;;;;;2.33;1.97;;;21.00;76.90;;;23.85;50.91;101215.44;5053200;28;20716;-61
2023/07/19 02:09:42;;;;;;;2.87;2.30;;;21.10;77.40;;;23.89;50.64;101211.22;5055125;28;20205;-62
2023/07/19 02:12:09;;;;;;;2.40;2.20;;;21.10;77.30;;;23.93;50.96;101215.84;5055086;28;20658;-62
2023/07/19 02:14:38;;;;;;;3.67;2.03;;;21.10;77.40;;;23.96;50.59;101217.22;5055166;28;20920;-62
2023/07/19 02:17:06;;;;;;;2.57;1.93;;;21.20;77.30;;;23.97;50.53;101219.63;5055398;28;20749;-62
2023/07/19 02:19:33;;;;;;;2.37;2.17;;;21.20;77.20;;;24.00;50.77;101224.53;5054624;28;20710;-62
2023/07/19 02:22:00;;;;;;;2.17;1.93;;;21.20;77.10;;;24.01;50.80;101219.97;5055292;28;20292;-62
2023/07/19 02:24:27;;;;;;;2.90;2.33;;;21.20;77.10;;;24.03;50.63;101218.63;5053164;28;20210;-61
2023/07/19 02:26:54;;;;;;;2.60;2.00;;;21.20;77.40;;;24.01;50.78;101223.44;5054799;28;20186;-63
2023/07/19 02:29:21;;;;;;;6.27;2.10;;;21.20;77.40;;;24.01;51.01;101212.69;5054639;28;20256;-62
2023/07/19 02:31:53;;;;;;;3.53;2.30;;;21.20;77.50;;;24.02;50.65;101208.94;5054350;28;20196;-63
2023/07/19 02:34:20;;;;;;;3.40;2.40;;;21.20;77.60;;;24.03;50.94;101210.56;5055106;28;20198;-62
2023/07/19 02:36:49;;;;;;;3.07;2.60;;;21.30;77.50;;;24.03;50.75;101207.06;5054784;28;20619;-62
2023/07/19 02:39:16;;;;;;;4.47;2.70;;;21.30;77.70;;;23.99;50.84;101214.81;5045643;28;20222;-60
2023/07/19 02:41:43;;;;;;;3.10;2.23;;;21.30;77.70;;;23.97;50.83;101208.88;5034606;28;20277;-63
2023/07/19 02:44:10;;;;;;;4.50;2.77;;;21.20;77.60;;;23.97;51.04;101206.19;5034600;28;20269;-65
2023/07/19 02:46:37;;;;;;;4.53;2.30;;;21.20;77.60;;;23.95;51.03;101204.81;5034786;28;20194;-62
2023/07/19 02:49:06;;;;;;;4.63;2.50;;;21.20;77.60;;;23.93;51.24;101202.38;5034180;28;20703;-62
2023/07/19 02:51:33;;;;;;;4.43;3.33;;;21.20;77.90;;;23.90;51.08;101194.00;5050388;28;20693;-61
2023/07/19 02:54:00;;;;;;;3.23;2.80;;;21.20;78.00;;;23.86;51.53;101196.38;5041973;28;20627;-61
2023/07/19 02:56:27;;;;;;;4.30;3.00;;;21.10;78.00;;;23.81;51.84;101199.00;5034304;28;20190;-61
2023/07/19 02:58:54;;;;;;;5.13;4.17;;;21.10;78.20;;;23.78;51.52;101193.31;5050341;28;20301;-61
2023/07/19 03:01:21;;;;;;;3.20;2.90;;;21.00;78.10;;;23.73;51.63;101185.16;5053871;28;20607;-62
2023/07/19 03:03:49;;;;;;;3.60;3.30;;;21.00;78.40;;;23.69;51.64;101190.25;5034215;28;20199;-61
2023/07/19 03:06:18;;;;;;;3.53;3.23;;;21.00;78.50;;;23.64;52.26;101186.66;5033975;28;20198;-62
2023/07/19 03:08:45;;;;;;;3.83;3.30;;;20.90;78.60;;;23.58;51.97;101188.50;5049750;28;20953;-60
2023/07/19 03:11:12;;;;;;;3.80;3.50;;;20.90;78.80;;;23.55;52.17;101183.63;5054216;28;20194;-62
2023/07/19 03:13:39;;;;;;;5.43;3.53;;;20.80;78.90;;;23.52;52.30;101186.78;5053385;28;20192;-62
2023/07/19 03:16:06;;;;;;;4.47;4.03;;;20.80;79.20;;;23.49;52.25;101184.59;5054090;28;20198;-61
2023/07/19 03:18:33;;;;;;;6.23;3.87;;;20.70;79.20;;;23.46;52.41;101185.13;5053435;28;20602;-62
2023/07/19 03:21:02;;;;;;;4.33;3.80;;;20.70;79.30;;;23.43;52.24;101180.22;5052756;28;20218;-61
2023/07/19 03:23:30;;;;;;;6.20;3.70;;;20.70;79.60;;;23.41;52.52;101190.41;5053526;28;20189;-64
2023/07/19 03:25:58;;;;;;;5.63;3.73;;;20.60;79.60;;;23.40;52.57;101189.59;5053552;28;20190;-60
2023/07/19 03:28:27;;;;;;;6.27;4.23;;;20.70;79.80;;;23.40;52.54;101188.78;5053522;28;20213;-63
2023/07/19 03:30:54;;;;;;;3.60;3.20;;;20.60;79.90;;;23.38;52.70;101185.53;5053872;28;20264;-63
2023/07/19 03:33:22;;;;;;;5.30;3.97;;;20.60;80.10;;;23.38;52.68;101186.34;5053519;28;20277;-63
2023/07/19 03:35:49;;;;;;;3.67;3.37;;;20.60;80.10;;;23.40;52.70;101186.09;5053214;28;20689;-63
2023/07/19 03:38:19;;;;;;;4.97;3.90;;;20.60;80.00;;;23.42;52.75;101181.28;5053407;28;20554;-66
2023/07/19 03:40:47;;;;;;;5.63;3.30;;;20.60;80.30;;;23.44;52.50;101187.22;5053122;28;20257;-63
2023/07/19 03:43:14;;;;;;;4.20;3.80;;;20.70;80.30;;;23.48;52.76;101188.38;5053475;28;20251;-62
2023/07/19 03:45:42;;;;;;;3.40;3.10;;;20.70;80.10;;;23.50;52.52;101186.22;5053404;28;20559;-63
2023/07/19 03:48:09;;;;;;;5.87;4.23;;;20.70;79.90;;;23.50;52.61;101175.47;5053392;28;20228;-63
2023/07/19 03:50:36;;;;;;;4.27;3.30;;;20.70;79.60;;;23.50;52.33;101178.16;5044636;28;20226;-63
2023/07/19 03:53:04;;;;;;;4.10;3.63;;;20.70;79.70;;;23.48;52.33;101174.94;5032557;28;20195;-63
2023/07/19 03:55:32;;;;;;;5.80;3.47;;;20.70;79.70;;;23.46;52.55;101174.38;5033583;28;20248;-62
2023/07/19 03:58:00;;;;;;;3.90;3.50;;;20.70;79.60;;;23.45;52.48;101180.78;5042124;28;20202;-62
2023/07/19 04:00:28;;;;;;;3.70;3.40;;;20.70;79.80;;;23.44;52.52;101171.09;5052880;28;20304;-62
2023/07/19 04:02:55;;;;;;;5.07;3.80;;;20.70;80.00;;;23.43;52.59;101174.84;5053295;28;20295;-63
2023/07/19 04:05:22;;;;;;;6.13;4.27;;;20.70;80.10;;;23.40;52.36;101175.34;5041048;28;20194;-63
2023/07/19 04:07:49;;;;;;;4.30;3.90;;;20.60;79.50;;;23.37;52.63;101175.81;5033089;28;20190;-64
2023/07/19 04:10:17;;;;;;;6.10;4.13;;;20.60;80.00;;;23.34;52.53;101181.69;5032802;28;20296;-63
2023/07/19 04:12:44;;;;;;;7.30;4.20;;;20.50;79.90;;;23.32;52.64;101173.06;5033218;28;20183;-62
2023/07/19 04:15:13;;;;;;;5.90;4.10;;;20.50;79.90;;;23.30;52.39;101169.78;5032294;28;20302;-63
2023/07/19 04:17:40;;;;;;;4.87;3.80;;;20.50;80.10;;;23.30;52.72;101162.53;5033354;28;20191;-63
2023/07/19 04:20:09;;;;;;;4.50;4.00;;;20.50;80.40;;;23.31;52.88;101160.69;5048643;28;20685;-63
2023/07/19 04:22:36;;;;;;;7.43;3.10;;;20.50;80.50;;;23.31;52.75;101152.63;5052795;28;20901;-63
2023/07/19 04:25:04;;;;;;;6.67;4.20;;;20.50;80.60;;;23.35;52.59;101157.28;5053330;28;20198;-62
2023/07/19 04:27:31;;;;;;;4.03;3.63;;;20.50;80.20;;;23.37;52.56;101160.53;5056227;28;20196;-62
2023/07/19 04:29:58;;;;;;;4.13;3.67;;;20.50;80.10;;;23.39;52.28;101146.84;5056886;28;20261;-63
2023/07/19 04:32:27;;;;;;;3.70;3.40;;;20.50;79.90;;;23.41;52.27;101150.09;5057136;28;20666;-63
2023/07/19 04:34:54;;;;;;;6.00;3.40;;;20.60;79.80;;;23.40;52.24;101137.72;5056652;28;20194;-62
2023/07/19 04:37:21;;;;;;;4.43;3.40;;;20.60;79.50;;;23.39;51.94;101144.97;5056451;28;20684;-62
2023/07/19 04:39:49;;;;;;;4.67;3.53;;;20.60;79.50;;;23.39;52.21;101147.66;5056289;28;20218;-62
2023/07/19 04:42:16;;;;;;;3.73;3.30;;;20.60;79.60;;;23.40;51.92;101143.91;5056705;28;20190;-63
2023/07/19 04:44:43;;;;;;;7.83;4.10;;;20.60;79.40;;;23.41;52.08;101150.94;5056558;28;20193;-63
2023/07/19 04:47:11;;;;;;;4.60;3.23;;;20.60;79.30;;;23.43;51.74;101150.66;5053565;28;20186;-63
2023/07/19 04:49:40;;;;;;;4.17;3.73;;;20.60;79.40;;;23.47;52.35;101146.41;5036207;28;20206;-61
2023/07/19 04:52:07;;;;;;;4.10;3.70;;;20.60;79.40;;;23.51;51.97;101150.22;5037455;28;20226;-63
2023/07/19 04:54:34;;;;;;;4.83;3.47;;;20.60;79.30;;;23.53;51.66;101148.13;5037238;28;20282;-61
2023/07/19 04:57:01;;;;;;;4.13;3.30;;;20.60;78.90;;;23.53;51.57;101150.81;5037510;28;20723;-63
2023/07/19 04:59:29;;;;;;;5.77;3.33;;;20.70;79.20;;;23.53;51.74;101156.97;5040911;28;20309;-61
2023/07/19 05:01:56;;;;;;;5.13;3.97;;;20.70;79.20;;;23.51;51.55;101142.16;5036615;28;20629;-61
2023/07/19 05:04:23;;;;;;;6.03;4.00;;;20.70;79.00;;;23.51;51.59;101142.97;5036284;28;20195;-63
2023/07/19 05:06:51;;;;;;;5.70;4.07;;;20.70;78.90;;;23.52;51.61;101146.47;5036115;28;20591;-63
2023/07/19 05:09:18;;;;;;;6.07;3.23;;;20.70;78.80;;;23.50;51.75;101148.59;5035783;28;20214;-62
2023/07/19 05:11:45;;;;;;;5.13;3.67;;;20.70;78.80;;;23.50;51.19;101144.06;5036101;28;20274;-62
2023/07/19 05:14:12;;;;;;;7.13;4.17;;;20.70;78.90;;;23.49;51.51;101147.78;5035754;28;20281;-63
2023/07/19 05:16:39;;;;;;;6.43;3.70;;;20.60;78.60;;;23.51;51.51;101144.84;5046614;28;20205;-62
2023/07/19 05:19:06;;;;;;;4.40;4.00;;;20.60;78.80;;;23.53;51.31;101145.44;5055259;28;20216;-62
2023/07/19 05:21:34;;;;;;;5.57;3.40;;;20.60;78.80;;;23.57;51.29;101154.59;5055958;28;20360;-61
2023/07/19 05:24:03;;;;;;;4.73;4.07;;;20.60;79.00;;;23.61;51.14;101155.72;5055742;28;20190;-62
2023/07/19 05:26:30;;;;;;;22.33;20.07;;;20.70;78.90;;;23.66;51.19;101150.41;5055609;28;20304;-62
2023/07/19 05:28:57;;;;;;;8.00;7.13;;;20.70;78.50;;;23.68;51.20;101147.50;5055001;28;20236;-63
2023/07/19 05:31:24;;;;;;;5.17;4.57;;;20.70;78.20;;;23.72;50.74;101156.69;5041090;28;20197;-62
2023/07/19 05:33:51;;;;;;;5.20;4.50;;;20.80;78.10;;;23.75;50.69;101151.59;5035408;28;20545;-62
2023/07/19 05:36:18;;;;;;;8.17;4.63;;;20.80;78.70;;;23.73;50.17;101139.47;5035428;28;20190;-62
2023/07/19 05:38:45;;;;;;;7.83;4.70;;;20.80;77.40;;;23.66;50.26;101142.34;5039146;28;20213;-67
2023/07/19 05:41:14;;;;;;;7.13;3.90;;;20.80;77.40;;;23.59;50.72;101136.34;5054993;28;20271;-63
2023/07/19 05:43:41;;;;;;;4.33;3.93;;;20.80;77.80;;;23.54;51.02;101137.09;5055072;28;20194;-61
2023/07/19 05:46:09;;;;;;;4.47;3.93;;;20.80;78.10;;;23.55;51.16;101149.50;5036968;28;20281;-62
2023/07/19 05:48:36;;;;;;;6.40;4.70;;;20.80;78.30;;;23.56;51.07;101152.97;5035266;28;20541;-62
2023/07/19 05:51:06;;;;;;;5.60;4.80;;;20.70;77.90;;;23.56;50.94;101158.34;5035169;28;20234;-63
2023/07/19 05:53:33;;;;;;;5.53;4.43;;;20.70;77.60;;;23.54;50.87;101155.91;5035203;28;20256;-65
2023/07/19 05:56:00;;;;;;;9.00;4.47;;;20.70;77.80;;;23.55;50.72;101146.00;5034812;28;20652;-63
2023/07/19 05:58:30;;;;;;;5.80;5.23;;;20.70;77.90;;;23.56;50.83;101158.34;5040577;28;20206;-63
2023/07/19 06:00:57;;;;;;;4.57;4.17;;;20.70;77.90;;;23.55;50.56;101160.25;5035441;28;20650;-61
2023/07/19 06:03:25;;;;;;;4.37;3.80;;;20.70;77.80;;;23.56;51.06;101159.16;5035409;28;20278;-62
2023/07/19 06:05:52;;;;;;;6.63;4.77;;;20.70;78.10;;;23.61;51.00;101161.09;5034902;28;20701;-62
2023/07/19 06:08:19;;;;;;;6.63;5.20;;;20.70;78.20;;;23.66;50.55;101163.84;5034733;28;20218;-62
2023/07/19 06:10:51;;;;;;;4.93;4.43;;;20.80;78.00;;;23.70;50.52;101167.66;5034611;28;20213;-62
2023/07/19 06:13:19;;;;;;;4.87;4.20;;;20.80;77.80;;;23.72;50.61;101165.56;5040889;28;20282;-62
2023/07/19 06:15:48;;;;;;;5.43;4.93;;;20.80;77.50;;;23.74;50.09;101166.13;5054437;28;20218;-62
2023/07/19 06:18:16;;;;;;;6.93;6.27;;;20.80;77.30;;;23.74;50.46;101174.19;5054692;28;20584;-60
2023/07/19 06:20:43;;;;;;;5.50;5.00;;;20.80;77.40;;;23.78;50.31;101167.22;5053936;28;20380;-62
2023/07/19 06:23:10;;;;;;;5.13;4.60;;;20.80;77.10;;;23.83;50.00;101166.47;5054624;28;20696;-62
2023/07/19 06:25:38;;;;;;;6.67;4.40;;;20.90;77.40;;;23.85;50.28;101157.09;5054031;28;20217;-62
2023/07/19 06:28:05;;;;;;;7.40;4.37;;;20.90;77.40;;;23.91;49.94;101155.28;5044126;28;20199;-63
2023/07/19 06:30:32;;;;;;;5.30;4.60;;;21.00;77.50;;;23.96;49.97;101148.06;5033912;28;20269;-65
2023/07/19 06:33:00;;;;;;;4.93;4.40;;;21.00;77.10;;;23.95;50.06;101143.78;5034644;28;20222;-62
2023/07/19 06:35:33;;;;;;;6.63;4.67;;;21.00;76.80;;;23.95;49.53;101149.16;5043189;28;20233;-62
2023/07/19 06:38:00;;;;;;;5.57;4.60;;;21.00;76.70;;;23.96;49.68;101142.69;5054065;28;20609;-62
2023/07/19 06:40:27;;;;;;;4.70;4.30;;;21.00;76.50;;;23.93;49.37;101156.66;5053666;28;20222;-63
2023/07/19 06:42:54;;;;;;;4.73;4.23;;;21.00;76.20;;;23.89;49.40;101158.22;5039755;28;20191;-62
2023/07/19 06:45:21;;;;;;;6.10;5.10;;;21.00;76.20;;;23.83;49.59;101159.22;5033955;28;20277;-62
2023/07/19 06:47:48;;;;;;;5.20;4.70;;;21.00;76.10;;;23.78;49.83;101151.09;5034077;28;20198;-61
2023/07/19 06:50:17;;;;;;;5.00;4.50;;;21.00;76.20;;;23.80;50.07;101153.53;5032691;28;20674;-62
2023/07/19 06:52:44;;;;;;;4.93;4.43;;;21.00;76.70;;;23.89;49.86;101152.81;5033644;28;20230;-63
2023/07/19 06:55:11;;;;;;;5.80;4.63;;;21.00;76.80;;;23.96;50.04;101153.44;5034278;28;20210;-63
2023/07/19 06:57:38;;;;;;;4.90;4.23;;;21.00;76.90;;;24.12;49.73;101149.91;5047581;28;20194;-63
2023/07/19 07:00:07;;;;;;;4.73;4.33;;;21.10;76.90;;;24.30;49.55;101153.28;5033561;28;20228;-62
2023/07/19 07:02:34;;;;;;;5.13;3.87;;;21.20;77.00;;;24.45;49.05;101161.50;5033957;28;20190;-62
2023/07/19 07:05:02;;;;;;;5.80;4.43;;;21.30;76.80;;;24.49;48.59;101162.63;5034216;28;20256;-62
2023/07/19 07:07:30;;;;;;;7.10;3.77;;;21.40;75.60;;;24.51;48.63;101155.91;5033965;28;20197;-62
2023/07/19 07:09:58;;;;;;;5.17;4.03;;;21.40;75.50;;;24.60;48.76;101150.88;5035242;28;20302;-63
2023/07/19 07:12:25;;;;;;;4.33;3.93;;;21.50;75.40;;;24.72;48.49;101149.63;5053837;28;20229;-62
2023/07/19 07:14:52;;;;;;;4.97;4.30;;;21.60;75.50;;;24.80;48.26;101143.78;5053301;28;20252;-62
2023/07/19 07:17:19;;;;;;;5.47;4.67;;;21.70;74.70;;;24.90;47.57;101143.06;5053311;28;20674;-62
2023/07/19 07:19:46;;;;;;;4.90;4.20;;;21.80;74.90;;;25.09;47.90;101136.19;5051317;28;20275;-62
2023/07/19 07:22:13;;;;;;;5.50;4.53;;;21.90;74.90;;;25.31;47.29;101136.84;5052652;28;20306;-62
2023/07/19 07:24:42;;;;;;;4.00;3.50;;;21.90;74.20;;;25.52;46.39;101130.50;5049335;28;20191;-62
2023/07/19 07:27:09;;;;;;;6.67;4.40;;;22.10;74.10;;;25.67;46.55;101134.34;5035632;28;20214;-62
2023/07/19 07:29:36;;;;;;;12.00;10.03;;;22.20;73.80;;;25.77;45.69;101137.06;5041840;28;20253;-60
2023/07/19 07:32:04;;;;;;;5.07;4.67;;;22.40;73.50;;;25.89;46.20;101137.63;5042941;28;20229;-60
2023/07/19 07:34:31;;;;;;;6.93;6.23;;;22.50;73.00;;;26.04;45.71;101132.28;5053040;28;20338;-62
2023/07/19 07:36:58;;;;;;;6.10;4.87;;;22.60;72.60;;;26.18;44.59;101128.81;5052995;28;20202;-60
2023/07/19 07:39:25;;;;;;;8.00;4.43;;;22.70;71.80;;;26.28;44.46;101135.31;5046283;28;20241;-62
2023/07/19 07:41:56;;;;;;;3.93;3.57;;;22.90;71.70;;;26.28;44.19;101138.81;5031711;28;20230;-62
2023/07/19 07:44:23;;;;;;;4.63;3.63;;;23.00;71.00;;;26.29;44.55;101143.16;5033496;28;20183;-62
2023/07/19 07:46:50;;;;;;;3.83;3.53;;;23.00;70.80;;;26.33;44.41;101144.22;5033249;28;20247;-64
2023/07/19 07:49:17;;;;;;;4.00;3.57;;;23.00;70.60;;;26.37;44.66;101142.59;5032836;28;20255;-63
2023/07/19 07:51:44;;;;;;;5.07;4.17;;;23.10;70.50;;;26.33;43.52;101141.53;5051503;28;20280;-64
2023/07/19 07:54:11;;;;;;;4.07;3.67;;;23.10;69.30;;;26.21;44.13;101138.28;5052855;28;20276;-63
2023/07/19 07:56:38;;;;;;;4.47;3.90;;;23.10;69.50;;;26.22;44.20;101133.69;5052324;28;20272;-64
2023/07/19 07:59:07;;;;;;;6.33;4.07;;;23.10;69.80;;;26.34;43.82;101137.72;5036276;28;20265;-63
2023/07/19 08:01:34;;;;;;;7.10;4.00;;;23.20;70.00;;;26.53;44.38;101136.13;5041841;28;20233;-63
2023/07/19 08:04:02;;;;;;;4.30;3.13;;;23.20;70.00;;;26.71;43.94;101130.19;5054216;28;20280;-63
2023/07/19 08:06:29;;;;;;;5.33;3.87;;;23.30;69.80;;;26.87;43.01;101131.00;5045920;28;20211;-63
2023/07/19 08:08:56;;;;;;;4.73;3.70;;;23.40;69.50;;;26.98;43.04;101126.41;5040672;28;20265;-63
2023/07/19 08:11:25;;;;;;;4.13;3.60;;;23.50;68.90;;;27.07;42.78;101130.16;5038730;28;20191;-68
2023/07/19 08:13:52;;;;;;;5.70;4.80;;;23.60;69.10;;;27.16;42.59;101129.31;5037022;28;20218;-64
2023/07/19 08:16:20;;;;;;;8.77;5.23;;;23.60;68.40;;;27.17;42.53;101130.13;5036806;28;20241;-64
2023/07/19 08:18:48;;;;;;;5.10;4.60;;;23.70;68.00;;;27.11;42.65;101123.09;5036659;28;20190;-63
2023/07/19 08:21:16;;;;;;;6.00;4.47;;;23.70;67.70;;;27.04;42.47;101122.59;5049618;28;20209;-62
2023/07/19 08:24:01;;;;;;;7.73;4.60;;;23.70;67.60;;;26.95;42.81;101126.94;5053470;28;20187;-61
2023/07/19 08:26:28;;;;;;;6.87;5.13;;;23.70;67.60;;;26.93;42.42;101126.41;5043559;28;20194;-62
2023/07/19 08:28:55;;;;;;;6.33;4.93;;;23.60;67.50;;;27.10;42.50;101130.41;5050876;28;20217;-62
2023/07/19 08:31:26;;;;;;;6.47;5.40;;;23.70;68.00;;;27.24;42.19;101122.53;5043318;28;20217;-64
2023/07/19 08:33:54;;;;;;;5.20;4.70;;;23.70;67.70;;;27.42;42.09;101122.78;5050681;28;20280;-63
2023/07/19 08:36:21;;;;;;;7.50;6.80;;;23.80;68.10;;;27.78;41.75;101115.31;5041077;28;20194;-63
2023/07/19 08:38:49;;;;;;;6.70;5.03;;;23.90;68.00;;;28.53;40.91;101124.00;5035978;28;20655;-62
2023/07/19 08:41:24;;;;;;;5.63;4.93;;;24.20;68.00;;;29.06;39.43;101120.25;5041368;28;20229;-62
2023/07/19 08:43:58;;;;;;;6.03;4.60;;;24.50;67.00;;;29.43;39.07;101116.84;5053304;28;20541;-65
2023/07/19 08:46:36;;;;;;;5.47;4.90;;;24.90;65.80;;;29.57;38.45;101122.41;5034118;28;20213;-65
2023/07/19 08:49:17;;;;;;;7.27;5.23;;;25.10;64.50;;;29.42;38.06;101120.69;5056705;28;20240;-65
2023/07/19 08:52:02;;;;;;;5.40;4.90;;;25.30;63.60;;;29.11;38.77;101122.91;5057928;28;20642;-65
2023/07/19 08:54:41;;;;;;;7.40;4.87;;;25.40;62.80;;;28.80;39.31;101118.91;5056622;28;20198;-66
2023/07/19 08:57:12;;;;;;;5.00;4.53;;;25.30;62.80;;;28.59;39.52;101112.03;5054038;28;20659;-63
2023/07/19 08:59:39;;;;;;;6.43;5.10;;;25.30;63.00;;;28.43;39.65;101111.34;5054470;28;20256;-63
2023/07/19 09:02:07;;;;;;;7.37;5.70;;;25.20;63.00;;;28.32;39.91;101119.84;5043297;28;20285;-63
2023/07/19 09:04:36;;;;;;;7.90;5.57;;;25.00;63.00;;;28.24;39.92;101117.75;5048237;28;20213;-63
2023/07/19 09:07:04;;;;;;;7.00;5.50;;;24.90;63.30;;;28.17;40.15;101105.31;5055138;28;20282;-63
2023/07/19 09:09:32;;;;;;;5.57;5.07;;;24.90;63.80;;;28.12;40.02;101120.81;5050040;28;20679;-65
2023/07/19 09:12:00;;;;;;;5.27;4.80;;;24.80;63.90;;;28.00;40.45;101123.84;5049220;28;20194;-63
2023/07/19 09:14:37;;;;;;;7.93;5.40;;;24.70;64.10;;;27.91;40.86;101120.09;5047250;28;20195;-64
2023/07/19 09:17:09;;;;;;;22.63;8.17;;;24.70;64.60;;;27.99;40.56;101119.53;5035459;28;20203;-64
2023/07/19 09:19:38;;;;;;;6.23;4.83;;;24.70;65.10;;;28.11;40.57;101116.47;5065409;28;20249;-62
2023/07/19 09:22:06;;;;;;;5.73;5.23;;;24.60;64.90;;;28.36;40.28;101113.56;5035678;28;20210;-63
2023/07/19 09:24:33;;;;;;;6.67;4.60;;;24.70;65.00;;;28.69;40.09;101114.69;5046899;28;20263;-62
2023/07/19 09:27:00;;;;;;;6.47;5.23;;;24.80;65.20;;;28.99;39.11;101100.81;5052208;28;20209;-61
2023/07/19 09:29:33;;;;;;;4.70;4.30;;;25.00;64.60;;;29.14;37.84;101103.38;5045177;28;20245;-62
2023/07/19 09:32:01;;;;;;;3.77;3.47;;;25.10;61.90;;;29.08;37.91;101109.09;5045349;28;20255;-64
2023/07/19 09:34:36;;;;;;;6.47;4.07;;;25.20;61.80;;;28.94;38.22;101106.28;5048805;28;20273;-63
2023/07/19 09:37:04;;;;;;;7.93;4.30;;;25.30;61.90;;;28.74;38.49;101110.00;5049478;28;20229;-61
2023/07/19 09:39:35;;;;;;;5.10;4.60;;;25.20;61.60;;;28.55;38.78;101108.28;5052039;28;20245;-62
2023/07/19 09:42:07;;;;;;;5.47;4.78;;;25.20;61.90;;;28.59;38.60;101102.03;5053501;28;20436;-61
2023/07/19 09:44:36;;;;;;;4.00;3.70;;;25.10;62.50;;;28.51;39.27;101109.91;5052890;28;20301;-62
2023/07/19 09:47:08;;;;;;;4.03;3.47;;;25.10;62.50;;;28.50;39.51;101100.97;5051949;28;20554;-63
2023/07/19 09:49:55;;;;;;;7.70;4.10;;;25.10;62.60;;;28.42;39.30;101104.31;5048451;28;20222;-62
2023/07/19 09:52:25;;;;;;;5.40;4.90;;;25.10;62.20;;;28.35;39.12;101108.44;5051113;28;20186;-64
2023/07/19 09:54:54;;;;;;;5.13;4.63;;;25.10;62.10;;;28.25;39.39;101108.50;5044829;28;20605;-63
2023/07/19 09:57:25;;;;;;;3.70;3.40;;;25.00;61.60;;;28.11;39.06;101108.34;5049663;28;20255;-61
2023/07/19 09:59:53;;;;;;;3.70;2.83;;;24.90;61.10;;;27.98;39.18;101104.34;5038368;28;20268;-63
2023/07/19 10:02:22;;;;;;;4.13;2.70;;;24.90;61.40;;;27.91;39.46;101109.25;5040688;28;20218;-62
2023/07/19 10:04:52;;;;;;;3.50;3.20;;;24.80;61.30;;;27.84;39.69;101107.94;5038483;28;20221;-62
2023/07/19 10:07:26;;;;;;;4.63;2.93;;;24.70;61.40;;;27.77;39.57;101102.84;5033220;28;20197;-63
2023/07/19 10:10:12;;;;;;;3.27;2.97;;;24.70;61.70;;;27.78;39.41;101103.66;5049870;28;20206;-63
2023/07/19 10:12:46;;;;;;;5.47;2.93;;;24.60;61.70;;;27.92;39.39;101105.47;5048108;28;20216;-64
2023/07/19 10:15:16;;;;;;;4.00;2.80;;;24.70;62.00;;;28.32;39.21;101111.69;5048091;28;20213;-63
2023/07/19 10:17:55;;;;;;;3.53;2.90;;;24.70;62.10;;;28.60;38.24;101102.81;5044863;28;20202;-64